Latest Weather Observations for Williamtown

IDN60801

Issued at 11:04 am EDT Monday 26 January 2015 (issued every 30 minutes, with the page automatically refreshed every 10 minutes)

About weather observations | Map of weather stations | Latest weather observations for NSW | Other Formats
Station Details ID: 061078 Name: WILLIAMTOWN RAAF Lat: -32.79 Lon: 151.84 Height: 9.0 m
Data from the previous 72 hours. | See also: Recent months at Williamtown
Date/Time
EDT
Temp
°C
App
Temp
°C
Dew
Point
Rel
Hum
%
Delta-T
°C
Wind Press
QNH
hPa
Press
MSL
hPa
Rain
since 9 am
mm
Dir
 
Spd
km/h
Gust
km/h
Spd
kts
Gust
kts
26/10:30am 22.8 24.6 20.3 86 1.6 SSE 11 15 6 8 1012.2 - 0.4
26/10:00am 22.6 23.5 20.0 85 1.7 SSE 15 22 8 12 1012.2 - 0.0
26/09:30am 22.3 24.3 20.8 91 1.0 SSW 11 13 6 7 1011.8 - 0.0
26/09:00am 21.9 23.4 20.5 92 0.9 SSW 13 17 7 9 1011.4 1011.4 2.4
26/08:30am 21.8 23.4 20.7 93 0.7 S 13 19 7 10 1011.0 - 2.4
26/08:16am 21.5 22.9 20.4 93 0.7 SSW 13 17 7 9 1011.2 - 2.4
26/08:00am 21.3 22.7 20.4 95 0.6 SSW 13 19 7 10 1011.2 - 2.2
26/07:41am 21.1 22.4 20.2 95 0.6 SSE 13 17 7 9 1011.1 - 2.0
26/07:30am 21.1 21.3 20.2 95 0.6 SSW 19 28 10 15 1011.0 - 2.0
26/07:00am 21.4 22.2 20.6 95 0.5 SSW 17 24 9 13 1010.5 - 1.8
26/05:37am 22.6 23.1 21.1 91 1.0 SSE 20 26 11 14 1009.3 - 1.6
26/05:30am 22.4 24.7 21.3 93 0.7 S 11 17 6 9 1009.2 - 1.6
26/05:22am 22.2 24.9 21.3 95 0.6 SSW 9 11 5 6 1009.1 - 1.6
26/05:00am 22.4 24.2 21.2 93 0.8 S 13 17 7 9 1008.9 - 1.4
26/04:51am 22.4 23.4 21.0 92 0.9 SSE 17 24 9 13 1008.8 - 1.4
26/04:30am 22.4 23.6 21.5 95 0.6 S 17 28 9 15 1008.8 - 1.0
26/04:17am 22.5 24.4 21.3 93 0.8 S 13 20 7 11 1008.7 - 0.4
26/04:00am 22.5 23.6 21.3 93 0.8 SSW 17 22 9 12 1008.8 - 0.2
26/03:30am 22.3 23.5 21.4 95 0.6 SSW 17 24 9 13 1008.8 - 0.2
26/03:06am 22.4 23.0 21.3 93 0.7 S 20 26 11 14 1008.7 - 0.0
26/03:00am 22.4 23.0 21.3 93 0.7 S 20 28 11 15 1008.7 1008.7 0.0
26/02:30am 22.6 22.0 21.2 92 0.9 S 26 35 14 19 1008.6 - 0.0
26/02:00am 23.4 22.6 20.8 85 1.7 S 26 35 14 19 1008.3 - 0.0
26/01:30am 23.5 22.1 21.1 86 1.6 S 30 37 16 20 1008.1 - 0.0
26/01:00am 24.0 22.7 21.3 85 1.8 S 30 41 16 22 1008.1 - 0.0
26/12:30am 24.2 23.0 21.6 85 1.7 SSW 30 39 16 21 1008.1 - 0.0
26/12:08am 24.3 22.8 22.1 87 1.5 S 33 41 18 22 1007.8 - 0.0
26/12:00am 24.4 23.5 22.2 87 1.5 SSW 30 41 16 22 1007.8 1007.8 0.0
 
Date/Time
EDT
Temp
°C
App
Temp
°C
Dew
Point
Rel
Hum
%
Delta-T
°C
Wind Press
QNH
hPa
Press
MSL
hPa
Rain
since 9 am
mm
Dir
 
Spd
km/h
Gust
km/h
Spd
kts
Gust
kts
25/11:30pm 24.3 23.4 22.2 88 1.4 SSW 30 37 16 20 1007.6 - 0.0
25/11:00pm 24.2 23.3 22.1 88 1.4 SSW 30 43 16 23 1007.5 - 0.0
25/10:30pm 24.1 23.0 21.8 87 1.5 S 30 41 16 22 1007.1 - 0.0
25/10:00pm 27.6 24.5 17.5 54 6.4 S 30 39 16 21 1006.1 - 0.0
25/09:55pm 26.6 24.6 19.2 64 4.8 S 28 39 15 21 1005.9 - 0.0
25/09:30pm 27.9 28.2 17.8 54 6.4 E 13 19 7 10 1004.8 - 0.0
25/09:00pm 27.6 26.9 18.2 56 6.0 E 19 26 10 14 1004.2 1004.2 0.0
25/08:30pm 27.8 28.0 18.6 57 5.9 ENE 15 20 8 11 1003.4 - 0.0
25/08:00pm 28.2 28.8 18.6 56 6.2 ENE 13 19 7 10 1003.0 - 0.0
25/07:30pm 29.1 29.0 17.8 50 7.2 ENE 15 22 8 12 1002.8 - 0.0
25/07:00pm 31.0 29.3 15.8 40 9.5 ENE 19 26 10 14 1002.5 - 0.0
25/06:30pm 32.4 32.2 16.8 39 9.9 E 13 17 7 9 1002.1 - 0.0
25/06:00pm 34.9 34.9 17.2 35 11.4 NW 13 22 7 12 1001.7 1001.7 0.0
25/05:30pm 35.1 34.5 17.5 35 11.4 WNW 17 22 9 12 1001.4 - 0.0
25/05:00pm 35.3 33.8 17.8 35 11.3 NW 22 32 12 17 1001.3 - 0.0
25/04:30pm 35.0 33.3 18.2 37 10.9 WNW 24 32 13 17 1001.5 - 0.0
25/04:00pm 34.2 34.9 18.8 40 10.1 N 13 20 7 11 1001.6 - 0.0
25/03:30pm 34.4 35.6 19.1 40 10.1 NW 11 19 6 10 1002.0 - 0.0
25/03:00pm 33.8 33.2 18.9 41 9.8 NNW 20 24 11 13 1002.2 1002.2 0.0
25/02:30pm 33.7 31.8 19.3 42 9.5 NW 28 33 15 18 1002.4 - 0.0
25/02:00pm 32.6 32.4 18.5 43 9.2 W 17 24 9 13 1002.6 - 0.0
25/01:30pm 33.4 33.8 19.1 42 9.4 WNW 15 24 8 13 1002.8 - 0.0
25/01:00pm 32.4 31.9 18.6 44 9.0 W 19 30 10 16 1003.0 - 0.0
25/12:30pm 32.9 32.0 18.1 41 9.6 W 20 30 11 16 1003.0 - 0.0
25/12:00pm 32.1 29.9 17.8 42 9.2 WNW 26 37 14 20 1003.2 1003.2 0.0
25/11:30am 30.9 28.6 18.4 47 8.1 NW 28 35 15 19 1003.4 - 0.0
25/11:00am 30.3 28.5 18.7 50 7.5 WNW 26 35 14 19 1003.5 - 0.0
25/10:30am 29.4 27.3 18.9 53 6.8 WNW 28 37 15 20 1003.4 - 0.0
25/10:00am 27.8 27.3 19.9 62 5.2 WNW 22 32 12 17 1003.7 - 0.0
25/09:30am 26.5 24.8 19.7 66 4.4 WNW 28 37 15 20 1003.9 - 0.0
25/09:00am 25.1 25.1 20.2 74 3.2 NW 20 30 11 16 1003.9 1003.9 0.2
25/08:30am 22.9 22.7 19.8 83 2.0 NW 20 28 11 15 1004.1 - 0.2
25/08:00am 22.9 23.4 20.0 84 1.9 NW 17 28 9 15 1004.0 - 0.2
25/07:30am 22.5 22.8 19.7 84 1.8 WNW 17 24 9 13 1003.8 - 0.2
25/07:00am 22.4 23.5 19.6 84 1.8 W 13 19 7 10 1003.4 - 0.2
25/06:30am 20.6 22.3 19.3 92 0.8 WNW 9 15 5 8 1003.1 - 0.2
25/06:00am 20.4 21.0 19.5 95 0.6 WNW 15 20 8 11 1003.1 1003.1 0.2
25/05:30am 20.5 21.5 19.4 93 0.7 NW 13 15 7 8 1002.9 - 0.2
25/05:00am 20.9 22.2 19.3 90 1.0 NW 11 13 6 7 1002.7 - 0.2
25/04:30am 21.1 22.5 19.5 90 1.0 NNW 11 13 6 7 1002.6 - 0.2
25/04:00am 21.4 22.5 19.7 90 1.1 NNW 13 17 7 9 1002.6 - 0.2
25/03:30am 21.3 22.6 20.1 93 0.8 NNW 13 17 7 9 1002.9 - 0.2
25/03:00am 21.2 22.9 20.1 93 0.7 NNW 11 13 6 7 1003.1 1003.1 0.2
25/02:30am 21.4 22.0 20.2 93 0.8 NW 17 20 9 11 1003.8 - 0.2
25/02:00am 21.8 22.3 20.9 95 0.6 WNW 19 24 10 13 1004.5 - 0.0
25/01:30am 22.5 24.0 21.3 93 0.8 NW 15 19 8 10 1004.9 - 0.0
25/01:00am 23.3 25.8 21.0 87 1.5 W 9 13 5 7 1005.3 - 0.0
25/12:30am 23.4 25.8 20.8 85 1.7 W 9 13 5 7 1006.1 - 0.0
25/12:00am 23.5 26.9 20.9 85 1.7 WNW 4 7 2 4 1006.3 1006.3 0.0
 
Date/Time
EDT
Temp
°C
App
Temp
°C
Dew
Point
Rel
Hum
%
Delta-T
°C
Wind Press
QNH
hPa
Press
MSL
hPa
Rain
since 9 am
mm
Dir
 
Spd
km/h
Gust
km/h
Spd
kts
Gust
kts
24/11:30pm 23.6 25.3 21.0 85 1.7 WNW 13 15 7 8 1006.6 - 0.0
24/11:00pm 23.8 26.8 20.9 84 1.9 ENE 6 9 3 5 1006.0 - 0.0
24/10:30pm 23.9 26.3 20.8 83 2.0 ENE 9 13 5 7 1005.7 - 0.0
24/10:00pm 24.0 26.0 20.8 82 2.1 ENE 11 15 6 8 1005.6 - 0.0
24/09:30pm 24.1 25.3 20.7 81 2.2 ENE 15 22 8 12 1005.3 - 0.0
24/09:00pm 24.3 24.6 20.5 79 2.5 E 19 26 10 14 1004.7 1004.7 0.0
24/08:30pm 24.7 25.2 20.1 75 3.0 ENE 17 26 9 14 1004.5 - 0.0
24/08:00pm 25.0 25.1 19.9 73 3.3 ENE 19 26 10 14 1004.0 - 0.0
24/07:30pm 25.6 25.0 19.7 70 3.8 ENE 22 30 12 16 1003.8 - 0.0
24/07:00pm 26.8 26.1 19.6 64 4.7 ENE 22 33 12 18 1003.6 - 0.0
24/06:30pm 27.2 26.0 19.2 61 5.2 ENE 24 35 13 19 1003.3 - 0.0
24/06:00pm 27.8 25.5 17.7 54 6.4 E 26 37 14 20 1003.4 1003.4 0.0
24/05:30pm 28.2 25.9 18.4 55 6.3 ENE 28 35 15 19 1003.6 - 0.0
24/05:00pm 28.4 26.0 18.3 54 6.5 ENE 28 37 15 20 1003.7 - 0.0
24/04:30pm 29.1 26.8 17.6 50 7.3 ENE 26 35 14 19 1004.1 - 0.0
24/04:00pm 29.2 27.5 18.1 51 7.1 NE 24 33 13 18 1004.3 - 0.0
24/03:30pm 30.0 29.0 18.9 51 7.2 ENE 22 30 12 16 1004.7 - 0.0
24/03:00pm 30.6 30.3 19.5 51 7.3 ENE 20 32 11 17 1005.2 1005.2 0.0
24/02:30pm 30.4 29.1 19.0 50 7.4 ESE 24 33 13 18 1005.4 - 0.0
24/02:00pm 30.0 28.6 19.6 53 6.8 ESE 26 32 14 17 1005.8 - 0.0
24/01:30pm 29.9 28.7 20.0 55 6.5 ESE 26 32 14 17 1006.1 - 0.0
24/01:00pm 30.0 30.5 19.3 52 7.0 ESE 15 26 8 14 1006.3 - 0.0
24/12:30pm 29.7 32.1 18.7 51 7.1 ENE 4 9 2 5 1006.6 - 0.0
24/12:00pm 29.3 29.5 18.6 52 6.9 NE 15 26 8 14 1007.0 1007.0 0.0
24/11:30am 28.5 29.3 19.1 56 6.1 NE 13 19 7 10 1007.5 - 0.0
24/11:00am 28.6 28.9 18.7 55 6.4 NE 15 20 8 11 1007.8 - 0.0
24/10:30am 28.3 28.4 18.3 54 6.4 NE 15 22 8 12 1007.9 - 0.0
24/10:00am 27.4 27.6 18.5 58 5.7 NNE 15 19 8 10 1008.0 - 0.0
24/09:30am 26.9 26.7 18.4 59 5.4 NNE 17 22 9 12 1008.3 - 0.0
24/09:00am 26.1 26.5 18.9 64 4.6 NE 15 20 8 11 1008.1 1008.1 0.0
24/08:30am 25.0 26.0 19.4 71 3.6 NE 13 19 7 10 1008.0 - 0.0
24/08:00am 23.8 25.4 19.9 79 2.5 NNE 11 15 6 8 1007.8 - 0.0
24/07:30am 22.7 26.0 19.9 84 1.8 NE 2 11 1 6 1007.7 - 0.0
24/07:00am 21.4 25.0 19.8 91 1.0 CALM 0 0 0 0 1007.7 - 0.0
24/06:30am 20.5 23.9 19.4 93 0.7 CALM 0 0 0 0 1007.2 - 0.0
24/06:00am 20.5 23.5 19.2 92 0.8 ENE 2 7 1 4 1007.1 1007.1 0.0
24/05:30am 20.8 24.2 19.4 92 0.9 CALM 0 0 0 0 1007.0 - 0.0
24/05:00am 21.4 24.9 19.5 89 1.2 CALM 0 0 0 0 1006.9 - 0.0
24/04:30am 21.8 25.2 19.4 86 1.5 CALM 0 0 0 0 1006.7 - 0.0
24/04:00am 22.0 23.0 19.5 86 1.6 NE 13 17 7 9 1006.6 - 0.0
24/03:30am 21.7 23.2 19.8 89 1.2 NE 11 15 6 8 1006.7 - 0.0
24/03:00am 22.0 23.9 19.8 87 1.4 NE 9 11 5 6 1006.7 1006.7 0.0
24/02:30am 22.4 24.3 19.8 85 1.7 NE 9 13 5 7 1007.0 - 0.0
24/02:00am 22.8 24.3 19.8 83 1.9 NNE 11 15 6 8 1007.2 - 0.0
24/01:30am 22.9 24.1 20.0 84 1.9 NE 13 19 7 10 1007.3 - 0.0
24/01:00am 23.1 23.9 19.8 82 2.1 NE 15 24 8 13 1007.5 - 0.0
24/12:30am 23.2 23.6 19.9 82 2.1 NE 17 24 9 13 1007.6 - 0.0
24/12:00am 23.5 24.3 19.9 80 2.3 NE 15 26 8 14 1007.6 1007.6 0.0
 
Date/Time
EDT
Temp
°C
App
Temp
°C
Dew
Point
Rel
Hum
%
Delta-T
°C
Wind Press
QNH
hPa
Press
MSL
hPa
Rain
since 9 am
mm
Dir
 
Spd
km/h
Gust
km/h
Spd
kts
Gust
kts
23/11:30pm 23.6 23.7 19.9 80 2.4 NE 19 28 10 15 1007.6 - 0.0
23/11:00pm 23.8 24.4 20.3 81 2.3 NE 17 24 9 13 1007.7 - 0.0
23/10:30pm 24.0 24.7 20.5 81 2.3 NE 17 24 9 13 1007.7 - 0.0
23/10:00pm 24.3 25.0 20.5 79 2.5 NE 17 24 9 13 1007.5 - 0.0
23/09:30pm 24.6 25.4 20.6 78 2.6 NE 17 26 9 14 1007.3 - 0.0
23/09:00pm 25.1 25.4 20.5 75 3.0 NE 19 28 10 15 1007.0 1007.0 0.0
23/08:30pm 25.7 26.5 20.7 74 3.3 ENE 17 28 9 15 1007.1 - 0.0
23/08:00pm 26.3 27.1 20.7 71 3.7 ENE 17 28 9 15 1006.8 - 0.0
23/07:30pm 27.2 27.2 20.2 65 4.6 NE 20 30 11 16 1006.4 - 0.0
23/07:00pm 28.0 27.2 20.1 62 5.2 NE 24 32 13 17 1006.2 - 0.0
23/06:30pm 28.7 28.4 20.4 60 5.5 NE 22 33 12 18 1005.8 - 0.0
23/06:00pm 28.9 27.7 20.1 59 5.8 ENE 26 33 14 18 1005.8 1005.8 0.0
23/05:30pm 29.3 29.2 20.7 59 5.7 ENE 22 32 12 17 1005.9 - 0.0
23/05:00pm 29.5 28.6 20.6 58 5.9 NE 26 37 14 20 1006.1 - 0.0
23/04:30pm 29.6 29.0 20.4 57 6.1 ENE 24 35 13 19 1006.3 - 0.0
23/04:00pm 29.5 27.5 20.8 59 5.8 E 32 41 17 22 1006.6 - 0.0
23/03:30pm 30.2 29.6 20.6 56 6.4 NE 24 33 13 18 1006.8 - 0.0
23/03:00pm 29.9 29.2 20.2 56 6.4 E 24 35 13 19 1007.1 1007.1 0.0
23/02:30pm 30.7 30.5 19.8 52 7.2 NE 20 32 11 17 1007.2 - 0.0
23/02:00pm 29.8 29.6 19.4 53 6.8 NE 19 24 10 13 1007.6 - 0.0
23/01:30pm 30.3 30.2 19.6 52 7.0 NE 19 28 10 15 1007.9 - 0.0
23/01:00pm 30.7 31.1 19.9 52 7.1 ENE 17 26 9 14 1008.3 - 0.0
23/12:30pm 29.2 28.9 19.6 56 6.3 NE 20 28 11 15 1008.9 - 0.0
23/12:00pm 29.2 30.0 19.9 57 6.1 NNE 15 24 8 13 1009.1 1009.1 0.0
23/11:30am 28.8 30.1 20.1 59 5.7 NNE 13 26 7 14 1009.4 - 0.0

Other Formats:

Comma delimited format used in spreadsheet applications
http://www.bom.gov.au/fwo/IDN60801/IDN60801.94776.axf

JavaScript Object Notation format (JSON) in row-major order
http://www.bom.gov.au/fwo/IDN60801/IDN60801.94776.json